Time;durP1;ratioP1;P1;durP2;ratioP2;P2;SDS_P1;SDS_P2;PMS_P1;PMS_P2;Temp;Humidity;BMP_temperature;BMP_pressure;BME280_temperature;BME280_humidity;BME280_pressure;Samples;Min_cycle;Max_cycle;Signal;HPM_P1;HPM_P2
2021/12/22 00:00:59;;;;;;;13.68;9.18;;;;;;;;;;5027748;28;20441;-71
2021/12/22 00:03:25;;;;;;;12.88;7.32;;;1.40;99.90;;;;;;5026800;28;20148;-71
2021/12/22 00:05:52;;;;;;;12.60;8.00;;;1.40;99.90;;;;;;5026141;28;20036;-71
2021/12/22 00:08:18;;;;;;;13.10;7.20;;;;;;;;;;5027354;28;20577;-72
2021/12/22 00:10:47;;;;;;;11.88;7.15;;;1.20;99.90;;;;;;5027120;28;20502;-72
2021/12/22 00:13:13;;;;;;;11.88;5.95;;;;;;;;;;5026591;28;20035;-75
2021/12/22 00:15:38;;;;;;;11.50;7.53;;;1.20;99.90;;;;;;5014173;28;20152;-74
2021/12/22 00:18:05;;;;;;;14.65;7.45;;;1.40;99.90;;;;;;5022910;28;20026;-73
2021/12/22 00:20:31;;;;;;;13.57;7.32;;;1.20;99.90;;;;;;5025541;28;20014;-76
2021/12/22 00:22:57;;;;;;;14.95;8.68;;;1.10;99.90;;;;;;5026803;28;20121;-75
2021/12/22 00:25:25;;;;;;;18.88;8.70;;;;;;;;;;5002545;28;20025;-73
2021/12/22 00:27:52;;;;;;;15.63;8.73;;;0.60;99.90;;;;;;5026398;28;20030;-73
2021/12/22 00:30:18;;;;;;;16.10;8.23;;;1.90;99.90;;;;;;5027541;28;20032;-73
2021/12/22 00:32:51;;;;;;;12.55;6.45;;;1.30;99.90;;;;;;5025575;28;20025;-73
2021/12/22 00:35:19;;;;;;;10.00;6.82;;;;;;;;;;5026237;28;20064;-72
2021/12/22 00:37:45;;;;;;;13.27;7.30;;;;;;;;;;5012993;28;20048;-72
2021/12/22 00:40:11;;;;;;;13.93;6.80;;;1.40;99.90;;;;;;5025252;28;20763;-72
2021/12/22 00:42:36;;;;;;;17.67;7.20;;;1.30;99.90;;;;;;5026111;28;20029;-72
2021/12/22 00:45:03;;;;;;;22.20;8.10;;;1.30;99.90;;;;;;5026139;28;20064;-74
2021/12/22 00:47:31;;;;;;;8.90;5.55;;;1.30;99.90;;;;;;5026832;28;20025;-72
2021/12/22 00:49:58;;;;;;;12.75;6.80;;;1.00;99.90;;;;;;5025657;28;20048;-73
2021/12/22 00:52:24;;;;;;;13.90;6.90;;;;;;;;;;5042897;28;20036;-72
2021/12/22 00:54:50;;;;;;;11.30;7.35;;;1.30;99.90;;;;;;5024784;28;20034;-74
2021/12/22 00:57:17;;;;;;;14.40;7.60;;;;;;;;;;5028202;28;20024;-75
2021/12/22 00:59:44;;;;;;;15.52;7.70;;;1.20;99.90;;;;;;5029503;28;20025;-75
2021/12/22 01:02:12;;;;;;;14.82;7.07;;;1.20;99.90;;;;;;5029903;28;20308;-74
2021/12/22 01:04:38;;;;;;;10.45;6.85;;;;;;;;;;5014613;28;20038;-73
2021/12/22 01:07:06;;;;;;;15.77;7.50;;;1.10;99.90;;;;;;5029507;28;20021;-74
2021/12/22 01:09:32;;;;;;;12.75;7.78;;;1.20;99.90;;;;;;5030027;28;20033;-72
2021/12/22 01:11:58;;;;;;;15.65;7.38;;;1.10;99.90;;;;;;5029714;28;20123;-75
2021/12/22 01:14:24;;;;;;;15.65;7.07;;;1.30;99.90;;;;;;5054832;22;20493;-71
2021/12/22 01:16:51;;;;;;;17.55;7.07;;;1.20;99.90;;;;;;5022796;28;20029;-70
2021/12/22 01:19:26;;;;;;;11.45;7.93;;;1.20;99.90;;;;;;5024658;28;20444;-71
2021/12/22 01:22:01;;;;;;;;;;;1.20;99.90;;;;;;5029464;28;20033;-70
2021/12/22 01:24:33;;;;;;;21.10;8.90;;;1.20;99.90;;;;;;5028208;28;19918;-70
2021/12/22 01:27:08;;;;;;;13.25;9.73;;;1.20;99.90;;;;;;5028503;28;20104;-69
2021/12/22 01:29:37;;;;;;;14.02;8.75;;;1.30;99.90;;;;;;5025506;28;20506;-70
2021/12/22 01:32:04;;;;;;;22.85;9.27;;;1.30;99.90;;;;;;5029501;28;20170;-70
2021/12/22 01:34:30;;;;;;;23.63;9.50;;;1.40;99.90;;;;;;5029111;28;20478;-71
2021/12/22 01:36:56;;;;;;;21.45;9.02;;;1.40;99.90;;;;;;5016035;28;20167;-71
2021/12/22 01:39:21;;;;;;;16.45;8.35;;;1.30;99.90;;;;;;5037192;28;20373;-70
2021/12/22 01:41:47;;;;;;;13.57;8.43;;;1.30;99.90;;;;;;5028988;28;20025;-70
2021/12/22 01:44:27;;;;;;;20.02;8.63;;;1.30;99.90;;;;;;5028577;28;20104;-69
2021/12/22 01:49:51;;;;;;;16.85;8.60;;;1.30;99.90;;;;;;4335095;28;10000702;-69
2021/12/22 01:52:18;;;;;;;14.10;9.15;;;1.40;99.90;;;;;;5029702;28;20526;-70
2021/12/22 01:55:24;;;;;;;18.30;8.80;;;1.30;99.90;;;;;;5029694;28;20080;-70
2021/12/22 01:57:50;;;;;;;17.02;9.52;;;;;;;;;;5030131;28;20037;-69
2021/12/22 02:00:17;;;;;;;11.57;7.95;;;;;;;;;;5031450;28;20024;-69
2021/12/22 02:02:43;;;;;;;9.23;7.05;;;1.50;99.90;;;;;;5032004;28;20134;-70
2021/12/22 02:05:09;;;;;;;20.70;7.28;;;;;;;;;;5033148;28;20614;-71
2021/12/22 02:07:35;;;;;;;21.55;8.73;;;;;;;;;;5033120;28;20107;-70
2021/12/22 02:11:02;;;;;;;11.98;8.15;;;;;;;;;;5033335;28;20056;-69
2021/12/22 02:12:58;;;;;;;19.67;8.60;;;;;;;;;;5023651;28;20037;-69
2021/12/22 02:15:28;;;;;;;14.32;8.00;;;;;;;;;;5033173;28;20378;-69
2021/12/22 02:17:57;;;;;;;17.00;7.22;;;;;;;;;;5030892;28;20025;-70
2021/12/22 02:20:23;;;;;;;12.38;6.78;;;;;;;;;;5032622;28;20024;-69
2021/12/22 02:22:49;;;;;;;11.23;7.13;;;;;;;;;;5032984;28;20022;-70
2021/12/22 02:25:19;;;;;;;16.67;7.80;;;;;;;;;;5032568;28;20041;-69
2021/12/22 02:27:51;;;;;;;12.48;7.53;;;;;;;;;;5032666;28;20029;-69
2021/12/22 02:30:24;;;;;;;15.68;8.52;;;;;;;;;;5016420;28;20072;-68
2021/12/22 02:38:17;;;;;;;11.68;7.18;;;;;;;;;;4951998;28;20043;-69
2021/12/22 02:40:44;;;;;;;13.68;8.30;;;;;;;;;;5029411;28;20410;-69
2021/12/22 02:43:10;;;;;;;15.75;7.93;;;;;;;;;;5032830;28;20025;-70
2021/12/22 02:45:37;;;;;;;13.40;7.80;;;;;;;;;;5031623;28;20120;-69
2021/12/22 02:48:03;;;;;;;17.75;7.90;;;;;;;;;;5032370;28;20030;-67
2021/12/22 02:50:29;;;;;;;25.48;8.60;;;;;;;;;;5031727;28;20030;-69
2021/12/22 02:55:32;;;;;;;19.02;7.40;;;;;;;;;;5032300;28;20116;-69
2021/12/22 02:58:03;;;;;;;12.13;8.73;;;;;;;;;;5032182;28;20026;-69
2021/12/22 03:00:45;;;;;;;15.40;9.45;;;;;;;;;;5031785;28;20028;-69
2021/12/22 03:03:58;;;;;;;9.45;8.45;;;;;;;;;;5032060;28;20022;-69
2021/12/22 03:06:05;;;;;;;15.55;9.07;;;;;;;;;;5022921;28;20074;-68
2021/12/22 03:08:31;;;;;;;15.23;9.10;;;;;;;;;;5012738;28;20018;-69
2021/12/22 03:10:57;;;;;;;13.73;8.73;;;;;;;;;;5031051;28;20040;-69
2021/12/22 03:13:24;;;;;;;20.55;9.35;;;;;;;;;;5031403;28;20076;-69
2021/12/22 03:15:50;;;;;;;20.23;8.10;;;1.50;99.90;;;;;;5031503;28;20108;-69
2021/12/22 03:18:17;;;;;;;15.48;7.38;;;1.40;99.90;;;;;;5028893;28;20067;-70
2021/12/22 03:20:45;;;;;;;23.88;9.57;;;;;;;;;;5029620;28;20026;-69
2021/12/22 03:23:11;;;;;;;39.60;12.75;;;;;;;;;;5031589;28;20017;-70
2021/12/22 03:25:39;;;;;;;15.75;8.85;;;;;;;;;;5032374;28;20491;-68
2021/12/22 03:28:05;;;;;;;13.15;6.95;;;;;;;;;;5013401;28;20441;-68
2021/12/22 03:30:31;;;;;;;16.73;7.13;;;;;;;;;;5030262;28;20038;-69
2021/12/22 03:32:57;;;;;;;15.55;7.60;;;;;;;;;;5031680;28;20021;-69
2021/12/22 03:35:23;;;;;;;9.57;5.90;;;;;;;;;;5030995;28;20091;-69
2021/12/22 03:37:51;;;;;;;18.50;6.07;;;;;;;;;;5031093;28;20025;-69
2021/12/22 03:40:22;;;;;;;6.05;4.93;;;1.10;99.90;;;;;;5030854;28;20183;-70
2021/12/22 03:42:48;;;;;;;8.30;5.35;;;1.10;99.90;;;;;;5031052;28;20021;-69
2021/12/22 03:45:15;;;;;;;8.52;3.97;;;;;;;;;;5031374;28;20061;-68
2021/12/22 03:47:41;;;;;;;5.07;3.75;;;;;;;;;;5030502;28;20120;-69
2021/12/22 03:50:08;;;;;;;6.47;3.47;;;1.10;99.90;;;;;;5031075;28;20033;-70
2021/12/22 03:52:34;;;;;;;6.28;3.15;;;1.10;99.90;;;;;;5030850;28;20514;-69
2021/12/22 03:55:00;;;;;;;8.07;2.67;;;;;;;;;;5029996;28;20041;-68
2021/12/22 03:57:27;;;;;;;7.38;3.08;;;1.10;99.90;;;;;;5030707;28;20095;-69
2021/12/22 03:59:53;;;;;;;12.45;2.97;;;;;;;;;;5031169;28;20034;-69
2021/12/22 04:02:21;;;;;;;10.40;2.72;;;;;;;;;;5030754;28;20025;-69
2021/12/22 04:04:49;;;;;;;4.13;2.65;;;;;;;;;;5030859;28;20026;-69
2021/12/22 04:07:15;;;;;;;8.40;3.05;;;;;;;;;;5013378;28;20028;-69
2021/12/22 04:09:41;;;;;;;9.60;2.95;;;1.10;99.90;;;;;;5013168;28;20242;-70
2021/12/22 04:12:07;;;;;;;12.07;2.78;;;1.10;99.90;;;;;;5013351;28;20029;-70
2021/12/22 04:14:33;;;;;;;5.22;2.38;;;0.90;99.90;;;;;;5011790;28;20034;-70
2021/12/22 04:16:59;;;;;;;6.47;2.58;;;;;;;;;;5031337;28;20022;-68
2021/12/22 04:19:25;;;;;;;5.88;2.42;;;;;;;;;;5029425;28;20458;-70
2021/12/22 04:21:51;;;;;;;8.52;2.55;;;1.00;99.90;;;;;;5024489;28;20483;-67
2021/12/22 04:24:18;;;;;;;5.03;1.95;;;0.90;99.90;;;;;;5020101;28;20044;-68
2021/12/22 04:26:44;;;;;;;9.98;2.17;;;;;;;;;;5033222;28;20034;-67
2021/12/22 04:29:11;;;;;;;6.85;2.47;;;;;;;;;;5035119;28;20471;-68
2021/12/22 04:31:37;;;;;;;5.32;2.63;;;;;;;;;;5034359;28;20083;-68
2021/12/22 04:34:07;;;;;;;4.60;2.65;;;;;;;;;;5034187;28;20032;-69
2021/12/22 04:36:33;;;;;;;10.60;2.35;;;;;;;;;;5034101;28;20057;-69
2021/12/22 04:38:59;;;;;;;9.38;2.78;;;;;;;;;;5016769;28;20028;-69
2021/12/22 04:41:26;;;;;;;8.48;3.35;;;;;;;;;;5016772;28;20391;-69
2021/12/22 04:43:53;;;;;;;10.02;4.03;;;;;;;;;;5034654;28;20037;-69
2021/12/22 04:46:20;;;;;;;10.55;3.38;;;1.10;99.90;;;;;;5034008;28;20467;-68
2021/12/22 04:48:46;;;;;;;6.35;3.95;;;;;;;;;;5034746;28;20041;-69
2021/12/22 04:51:30;;;;;;;7.85;3.88;;;;;;;;;;5034124;28;20411;-68
2021/12/22 04:54:17;;;;;;;11.07;4.07;;;;;;;;;;5034360;28;20502;-69
2021/12/22 04:56:43;;;;;;;8.77;4.45;;;0.90;99.90;;;;;;5034129;28;20038;-69
2021/12/22 04:59:09;;;;;;;8.93;4.47;;;;;;;;;;5034340;28;20032;-68
2021/12/22 05:01:35;;;;;;;6.75;4.32;;;;;;;;;;5034260;28;20087;-68
2021/12/22 05:04:01;;;;;;;11.05;5.40;;;;;;;;;;5034449;28;20486;-69
2021/12/22 05:06:27;;;;;;;8.13;5.15;;;;;;;;;;5033863;28;20044;-68
2021/12/22 05:08:53;;;;;;;9.70;5.55;;;;;;;;;;5034243;28;20546;-68
2021/12/22 05:11:20;;;;;;;13.73;5.63;;;;;;;;;;5034261;28;20483;-69
2021/12/22 05:13:48;;;;;;;12.30;6.18;;;0.90;99.90;;;;;;5033691;28;20457;-69
2021/12/22 05:16:18;;;;;;;8.75;5.97;;;;;;;;;;5033957;28;20223;-69
2021/12/22 05:21:14;;;;;;;17.02;6.57;;;;;;;;;;5034110;28;20069;-69
2021/12/22 05:23:39;;;;;;;12.95;6.28;;;1.20;99.90;;;;;;5033951;28;20053;-69
2021/12/22 05:26:05;;;;;;;9.27;6.38;;;;;;;;;;5033735;28;20041;-68
2021/12/22 05:28:31;;;;;;;12.05;6.35;;;;;;;;;;5034022;28;20021;-70
2021/12/22 05:30:57;;;;;;;8.50;6.32;;;;;;;;;;5032928;28;20123;-70
2021/12/22 05:33:22;;;;;;;8.50;6.65;;;1.00;99.90;;;;;;5033303;28;20037;-69
2021/12/22 05:35:48;;;;;;;13.25;7.50;;;1.20;99.90;;;;;;5015381;28;20028;-69
2021/12/22 05:38:15;;;;;;;12.45;7.07;;;;;;;;;;5015361;28;20117;-70
2021/12/22 05:40:41;;;;;;;14.15;7.10;;;;;;;;;;5032861;28;20501;-69
2021/12/22 05:43:07;;;;;;;9.85;7.03;;;;;;;;;;5033986;28;20365;-69
2021/12/22 05:45:32;;;;;;;13.15;7.55;;;;;;;;;;5033300;28;20116;-70
2021/12/22 05:47:58;;;;;;;12.38;8.07;;;0.40;99.90;;;;;;5015591;28;20021;-69
2021/12/22 05:50:24;;;;;;;11.63;8.25;;;0.20;99.90;;;;;;5034798;28;20029;-67
2021/12/22 05:52:50;;;;;;;19.33;8.38;;;;;;;;;;5033691;28;20022;-69
2021/12/22 05:55:16;;;;;;;15.77;9.75;;;;;;;;;;5031109;28;20116;-70
2021/12/22 05:57:42;;;;;;;26.08;9.73;;;;;;;;;;5039151;28;20029;-69
2021/12/22 06:00:09;;;;;;;13.38;9.52;;;0.10;99.90;;;;;;5035782;28;20034;-69
2021/12/22 06:02:34;;;;;;;23.05;10.30;;;-0.20;99.90;;;;;;5033997;28;20040;-66
2021/12/22 06:05:00;;;;;;;18.63;9.43;;;;;;;;;;5031576;28;20434;-72
2021/12/22 06:07:26;;;;;;;19.38;9.48;;;;;;;;;;5035229;28;20041;-71
2021/12/22 06:09:52;;;;;;;23.83;10.43;;;;;;;;;;5033079;28;20171;-71
2021/12/22 06:12:18;;;;;;;29.33;11.55;;;;;;;;;;5033623;28;20033;-70
2021/12/22 06:14:44;;;;;;;31.65;11.38;;;;;;;;;;5030515;28;20037;-71
2021/12/22 06:17:10;;;;;;;28.27;10.35;;;;;;;;;;5033352;28;20033;-71
2021/12/22 06:19:36;;;;;;;22.98;11.20;;;-0.40;99.90;;;;;;5015177;28;20025;-68
2021/12/22 06:22:02;;;;;;;28.10;11.32;;;;;;;;;;5032779;28;20022;-68
2021/12/22 06:24:29;;;;;;;24.90;11.65;;;;;;;;;;5034076;28;20096;-69
2021/12/22 06:26:55;;;;;;;19.33;11.00;;;;;;;;;;5033332;28;20021;-69
2021/12/22 06:29:21;;;;;;;30.48;11.25;;;;;;;;;;5016066;28;20021;-69
2021/12/22 06:31:47;;;;;;;24.55;11.68;;;;;;;;;;5036850;28;20040;-69
2021/12/22 06:34:13;;;;;;;28.10;11.73;;;;;;;;;;5040798;28;20037;-67
2021/12/22 06:36:39;;;;;;;25.15;12.13;;;;;;;;;;5041518;28;20033;-69
2021/12/22 06:39:06;;;;;;;22.02;10.73;;;;;;;;;;5042440;28;20025;-69
2021/12/22 06:41:32;;;;;;;26.92;11.55;;;;;;;;;;5022701;28;20025;-69
2021/12/22 06:43:58;;;;;;;19.73;11.68;;;;;;;;;;5044298;28;20099;-69
2021/12/22 06:46:24;;;;;;;23.30;12.02;;;;;;;;;;5039153;28;20048;-70
2021/12/22 06:48:50;;;;;;;21.42;10.00;;;;;;;;;;5030256;28;20028;-70
2021/12/22 06:51:16;;;;;;;25.02;12.18;;;;;;;;;;5045324;28;20112;-70
2021/12/22 06:53:42;;;;;;;24.35;11.50;;;;;;;;;;5036157;28;20029;-71
2021/12/22 06:56:08;;;;;;;22.98;11.88;;;;;;;;;;5045855;28;20048;-70
2021/12/22 06:58:34;;;;;;;25.00;12.82;;;;;;;;;;5031634;28;20029;-71
2021/12/22 07:01:00;;;;;;;30.83;12.70;;;;;;;;;;5041589;28;20033;-69
2021/12/22 07:03:26;;;;;;;31.08;12.07;;;;;;;;;;5028936;28;20698;-66
2021/12/22 07:05:52;;;;;;;38.47;13.10;;;;;;;;;;5027948;28;20633;-70
2021/12/22 07:08:18;;;;;;;29.92;12.77;;;-0.70;99.90;;;;;;5014362;28;20113;-69
2021/12/22 07:10:44;;;;;;;26.25;12.20;;;;;;;;;;5016670;28;20553;-69
2021/12/22 07:13:11;;;;;;;32.17;13.88;;;-0.80;99.90;;;;;;5019637;28;20033;-69
2021/12/22 07:15:37;;;;;;;34.63;12.90;;;-0.70;99.90;;;;;;5015186;28;20037;-68
2021/12/22 07:18:03;;;;;;;25.48;12.32;;;;;;;;;;5011464;28;20026;-71
2021/12/22 07:20:29;;;;;;;23.38;12.07;;;;;;;;;;5026476;28;20047;-69
2021/12/22 07:22:55;;;;;;;22.25;12.63;;;;;;;;;;5027116;28;20795;-69
2021/12/22 07:25:24;;;;;;;35.63;13.15;;;;;;;;;;5017472;28;20114;-71
2021/12/22 07:27:51;;;;;;;34.85;12.88;;;;;;;;;;5021910;28;20079;-68
2021/12/22 07:30:16;;;;;;;31.67;12.93;;;-0.50;99.90;;;;;;5025995;28;20032;-68
2021/12/22 07:32:42;;;;;;;31.20;12.95;;;;;;;;;;5022617;28;20034;-72
2021/12/22 07:35:27;;;;;;;38.90;14.10;;;-0.50;99.90;;;;;;5015883;28;20563;-71
2021/12/22 07:38:12;;;;;;;29.08;13.13;;;-0.60;99.90;;;;;;5027373;28;20079;-70
2021/12/22 07:40:38;;;;;;;39.65;13.77;;;;;;;;;;5018097;28;20096;-71
2021/12/22 07:43:04;;;;;;;28.65;14.05;;;;;;;;;;5025163;28;20129;-71
2021/12/22 07:45:30;;;;;;;29.38;13.40;;;;;;;;;;5020111;28;20037;-71
2021/12/22 07:47:56;;;;;;;36.63;12.88;;;;;;;;;;5017076;28;20053;-69
2021/12/22 07:50:22;;;;;;;37.15;14.85;;;;;;;;;;5016337;28;20083;-70
2021/12/22 07:52:48;;;;;;;30.92;13.23;;;;;;;;;;5020680;28;20034;-72
2021/12/22 07:55:14;;;;;;;39.00;14.85;;;;;;;;;;5016402;28;20045;-70
2021/12/22 07:57:39;;;;;;;26.70;12.20;;;-0.50;99.90;;;;;;5013572;28;20022;-68
2021/12/22 08:00:07;;;;;;;41.60;14.80;;;;;;;;;;5022519;28;20053;-72
2021/12/22 08:02:33;;;;;;;32.08;13.30;;;;;;;;;;4992554;28;20468;-71
2021/12/22 08:04:59;;;;;;;30.00;12.88;;;;;;;;;;5025667;28;20380;-71
2021/12/22 08:07:25;;;;;;;33.38;12.93;;;;;;;;;;5026704;28;20112;-69
2021/12/22 08:09:51;;;;;;;34.53;13.45;;;;;;;;;;5007549;28;20033;-69
2021/12/22 08:12:17;;;;;;;46.30;13.68;;;;;;;;;;5007874;28;20033;-70
2021/12/22 08:14:42;;;;;;;34.45;14.23;;;-0.20;99.90;;;;;;5021717;28;20030;-70
2021/12/22 08:17:10;;;;;;;36.88;14.00;;;0.00;99.90;;;;;;5013290;28;20088;-71
2021/12/22 08:19:36;;;;;;;34.20;15.18;;;;;;;;;;5018990;28;20075;-72
2021/12/22 08:22:03;;;;;;;40.35;16.00;;;0.10;99.90;;;;;;5009138;28;20197;-69
2021/12/22 08:24:29;;;;;;;35.75;14.35;;;;;;;;;;5024049;28;20037;-70
2021/12/22 08:26:55;;;;;;;30.60;13.20;;;;;;;;;;5026347;28;20077;-71
2021/12/22 08:29:21;;;;;;;31.95;13.15;;;;;;;;;;5021531;28;20117;-71
2021/12/22 08:31:47;;;;;;;36.70;14.48;;;;;;;;;;5025613;28;20026;-70
2021/12/22 08:34:21;;;;;;;41.28;14.45;;;;;;;;;;5023172;28;20499;-70
2021/12/22 08:39:31;;;;;;;29.83;12.50;;;;;;;;;;5015401;28;20007;-70
2021/12/22 08:41:57;;;;;;;23.27;11.77;;;;;;;;;;5020890;28;20022;-71
2021/12/22 08:44:25;;;;;;;30.80;12.82;;;;;;;;;;4992083;28;20136;-72
2021/12/22 08:46:51;;;;;;;28.83;13.50;;;;;;;;;;5023504;28;20048;-71
2021/12/22 08:49:19;;;;;;;38.05;11.00;;;0.60;99.90;;;;;;5025630;28;20516;-70
2021/12/22 08:51:45;;;;;;;28.27;11.70;;;;;;;;;;5025725;28;20129;-70
2021/12/22 08:54:11;;;;;;;32.83;11.80;;;;;;;;;;5022466;28;20040;-70
2021/12/22 08:56:39;;;;;;;28.98;12.13;;;;;;;;;;5004315;28;20034;-69
2021/12/22 08:59:06;;;;;;;29.02;11.13;;;;;;;;;;5017670;28;20050;-71
2021/12/22 09:01:31;;;;;;;22.35;10.98;;;0.50;99.90;;;;;;5018016;28;20026;-71
2021/12/22 09:03:57;;;;;;;19.83;10.52;;;;;;;;;;5011116;28;20501;-70
2021/12/22 09:06:23;;;;;;;24.88;11.18;;;0.80;99.90;;;;;;5022916;28;20029;-70
2021/12/22 09:08:50;;;;;;;20.50;11.27;;;;;;;;;;4995945;28;20033;-70
2021/12/22 09:11:16;;;;;;;29.13;12.27;;;;;;;;;;5025738;28;20026;-71
2021/12/22 09:13:42;;;;;;;28.08;11.38;;;0.80;99.90;;;;;;5008842;28;20420;-70
2021/12/22 09:16:09;;;;;;;28.17;12.13;;;0.80;99.90;;;;;;5025225;28;20056;-70
2021/12/22 09:18:35;;;;;;;22.60;10.73;;;;;;;;;;5028057;28;20027;-69
2021/12/22 09:21:02;;;;;;;26.35;11.52;;;1.70;99.90;;;;;;5026978;28;20380;-70
2021/12/22 09:23:28;;;;;;;25.30;12.32;;;;;;;;;;5021822;28;20018;-68
2021/12/22 09:25:54;;;;;;;30.08;13.25;;;;;;;;;;5029561;28;20033;-68
2021/12/22 09:28:20;;;;;;;26.58;12.68;;;;;;;;;;5020563;28;20025;-69
2021/12/22 09:30:46;;;;;;;39.08;13.93;;;1.00;99.90;;;;;;5028692;28;20066;-69
2021/12/22 09:33:15;;;;;;;30.38;14.10;;;1.10;99.90;;;;;;5021115;28;20480;-69
2021/12/22 09:35:42;;;;;;;31.33;14.13;;;1.20;99.90;;;;;;5014484;28;20033;-68
2021/12/22 09:38:09;;;;;;;47.67;14.77;;;;;;;;;;5026372;28;20018;-68
2021/12/22 09:40:36;;;;;;;39.75;14.80;;;1.00;99.90;;;;;;5028871;28;20408;-68
2021/12/22 09:43:02;;;;;;;34.55;15.55;;;;;;;;;;5025679;28;20037;-70
2021/12/22 09:45:28;;;;;;;35.65;15.85;;;;;;;;;;5027823;28;20080;-70
2021/12/22 09:52:16;;;;;;;45.95;18.27;;;1.40;99.90;;;;;;5028562;28;20113;-71
2021/12/22 09:53:28;;;;;;;40.83;16.38;;;1.40;99.90;;;;;;5019453;28;20053;-70
2021/12/22 09:55:54;;;;;;;43.33;15.80;;;;;;;;;;5023968;28;20047;-71
2021/12/22 09:58:20;;;;;;;35.28;17.38;;;;;;;;;;5026251;28;20538;-71
2021/12/22 10:00:48;;;;;;;40.63;16.75;;;1.80;99.90;;;;;;5014460;28;20029;-70
2021/12/22 10:03:14;;;;;;;40.42;19.02;;;;;;;;;;5028880;28;20434;-70
2021/12/22 10:05:41;;;;;;;44.92;18.80;;;1.40;99.90;;;;;;5028556;28;20055;-69
2021/12/22 10:08:09;;;;;;;44.22;17.52;;;1.20;99.90;;;;;;5028144;28;20268;-71
2021/12/22 10:10:37;;;;;;;40.38;18.60;;;1.30;99.90;;;;;;5029435;28;20025;-69
2021/12/22 10:13:16;;;;;;;42.30;17.92;;;1.20;99.90;;;;;;5028680;28;20424;-67
2021/12/22 10:15:42;;;;;;;45.03;19.45;;;;;;;;;;5028115;28;20071;-72
2021/12/22 10:18:17;;;;;;;42.38;18.58;;;1.50;99.90;;;;;;5033240;28;20025;-69
2021/12/22 10:20:46;;;;;;;46.03;18.30;;;1.70;99.90;;;;;;5015124;28;20049;-70
2021/12/22 10:23:26;;;;;;;51.75;20.45;;;1.70;99.90;;;;;;5032153;28;20060;-70
2021/12/22 10:25:54;;;;;;;42.28;19.15;;;2.10;99.90;;;;;;5015361;28;20363;-70
2021/12/22 10:28:20;;;;;;;47.05;18.38;;;1.80;99.90;;;;;;5033255;28;20104;-69
2021/12/22 10:30:48;;;;;;;52.80;18.67;;;1.80;99.90;;;;;;5033286;28;20087;-70
2021/12/22 10:33:14;;;;;;;36.67;17.92;;;;;;;;;;5032960;28;20052;-71
2021/12/22 10:35:46;;;;;;;36.80;17.55;;;2.20;99.90;;;;;;5033153;28;20124;-71
2021/12/22 10:38:13;;;;;;;48.53;19.02;;;2.20;99.90;;;;;;5032818;28;20017;-71
2021/12/22 10:41:03;;;;;;;41.53;19.40;;;2.30;99.90;;;;;;5033032;28;20025;-70
2021/12/22 10:43:31;;;;;;;39.35;17.52;;;2.30;99.90;;;;;;5032855;28;20494;-71
2021/12/22 10:46:00;;;;;;;41.10;18.42;;;;;;;;;;5056304;22;20033;-70
2021/12/22 10:51:27;;;;;;;39.95;17.40;;;2.10;99.90;;;;;;5033422;28;20045;-73
2021/12/22 10:53:53;;;;;;;43.95;18.95;;;;;;;;;;5032040;28;20133;-73
2021/12/22 10:56:36;;;;;;;40.33;17.25;;;2.00;99.90;;;;;;5032465;28;20044;-72
2021/12/22 10:59:08;;;;;;;45.35;18.55;;;1.90;99.90;;;;;;5032892;28;20498;-73
2021/12/22 11:01:59;;;;;;;39.35;18.40;;;2.10;99.90;;;;;;5032556;28;20487;-72
2021/12/22 11:04:31;;;;;;;47.17;19.35;;;2.00;99.90;;;;;;5032738;28;20029;-73
2021/12/22 11:07:08;;;;;;;38.72;18.20;;;2.20;99.90;;;;;;5031510;28;20099;-73
2021/12/22 11:09:36;;;;;;;37.33;17.38;;;2.30;99.90;;;;;;5014745;28;20026;-73
2021/12/22 11:12:04;;;;;;;43.20;18.20;;;2.30;99.90;;;;;;5032448;28;20040;-72
2021/12/22 11:14:33;;;;;;;37.20;17.67;;;;;;;;;;5032382;28;20021;-73
2021/12/22 11:16:59;;;;;;;36.20;16.95;;;;;;;;;;5032030;28;20025;-73
2021/12/22 11:19:34;;;;;;;42.60;16.63;;;2.40;99.90;;;;;;5032487;28;20544;-73
2021/12/22 11:22:04;;;;;;;39.72;17.38;;;;;;;;;;5032601;28;20403;-71
2021/12/22 11:24:31;;;;;;;43.50;18.05;;;;;;;;;;5023766;28;20116;-73
2021/12/22 11:26:58;;;;;;;54.33;19.48;;;;;;;;;;5022270;28;20542;-76
2021/12/22 11:29:24;;;;;;;31.17;16.75;;;;;;;;;;5027959;28;20029;-72
2021/12/22 11:31:51;;;;;;;32.75;16.30;;;;;;;;;;5028138;28;20041;-77
2021/12/22 11:34:18;;;;;;;31.33;14.38;;;;;;;;;;5025577;28;20041;-73
2021/12/22 11:36:50;;;;;;;26.25;15.00;;;;;;;;;;5025597;28;20025;-73
2021/12/22 11:39:18;;;;;;;32.08;13.82;;;;;;;;;;5006191;28;20034;-73
2021/12/22 11:41:54;;;;;;;31.40;15.30;;;;;;;;;;5001158;28;20461;-74
2021/12/22 11:44:23;;;;;;;27.02;15.13;;;6.30;99.90;;;;;;5010376;28;20029;-73
2021/12/22 11:46:49;;;;;;;30.38;15.00;;;;;;;;;;5029728;28;20048;-73
2021/12/22 11:49:20;;;;;;;23.67;14.23;;;8.70;99.90;;;;;;5035513;28;20025;-75
2021/12/22 11:51:46;;;;;;;25.83;14.73;;;;;;;;;;5034616;28;20032;-75
2021/12/22 11:54:13;;;;;;;27.55;14.15;;;;;;;;;;5015304;28;20740;-73
2021/12/22 11:56:53;;;;;;;18.52;13.63;;;10.90;99.90;;;;;;5039330;28;20037;-75
2021/12/22 11:59:36;;;;;;;24.30;12.80;;;11.30;99.90;;;;;;5034470;28;20017;-73
2021/12/22 12:02:22;;;;;;;20.85;11.52;;;;;;;;;;5021508;28;20034;-72
2021/12/22 12:04:51;;;;;;;24.67;12.63;;;;;;;;;;5026903;28;20034;-71
2021/12/22 12:07:52;;;;;;;25.63;13.13;;;9.30;99.90;;;;;;5024680;28;20029;-70
2021/12/22 12:10:31;;;;;;;27.17;13.40;;;9.20;99.90;;;;;;5020797;28;20056;-72
2021/12/22 12:13:04;;;;;;;20.98;12.85;;;8.80;99.90;;;;;;5019988;28;20036;-72
2021/12/22 12:21:38;;;;;;;21.08;13.45;;;8.70;99.90;;;;;;5008975;28;20025;-72
2021/12/22 12:22:07;;;;;;;27.85;13.98;;;;;;;;;;5026939;28;20055;-71
2021/12/22 12:24:35;;;;;;;22.92;13.77;;;;;;;;;;5026405;28;20048;-71
2021/12/22 12:27:02;;;;;;;22.88;13.55;;;;;;;;;;5026763;28;20041;-72
2021/12/22 12:29:57;;;;;;;29.17;14.15;;;;;;;;;;5027217;28;20124;-71
2021/12/22 12:32:42;;;;;;;32.40;14.65;;;8.80;99.90;;;;;;4996187;28;20112;-74
2021/12/22 12:35:19;;;;;;;18.63;14.02;;;8.30;99.90;;;;;;5011758;28;20097;-72
2021/12/22 12:38:03;;;;;;;28.67;14.88;;;7.80;99.90;;;;;;5025883;28;20021;-71
2021/12/22 12:40:57;;;;;;;29.58;15.02;;;7.40;99.90;;;;;;5026525;28;20214;-72
2021/12/22 12:46:24;;;;;;;31.57;16.43;;;6.90;99.90;;;;;;5025940;28;20038;-71
2021/12/22 12:48:53;;;;;;;31.83;14.52;;;;;;;;;;5030436;28;20463;-71
2021/12/22 12:51:29;;;;;;;37.67;16.77;;;;;;;;;;5030205;28;20010;-72
2021/12/22 12:53:58;;;;;;;32.03;15.38;;;;;;;;;;5029754;28;20076;-72
2021/12/22 12:56:33;;;;;;;30.00;14.60;;;;;;;;;;5030454;28;20022;-71
2021/12/22 12:59:00;;;;;;;29.73;14.90;;;;;;;;;;5015254;28;20498;-72
2021/12/22 13:01:45;;;;;;;28.75;15.38;;;;;;;;;;5030550;28;20032;-71
2021/12/22 13:04:23;;;;;;;47.22;17.65;;;;;;;;;;5012633;28;20040;-73
2021/12/22 13:06:49;;;;;;;28.73;14.70;;;;;;;;;;5029860;28;20033;-73
2021/12/22 13:09:25;;;;;;;32.03;15.98;;;;;;;;;;5022623;28;20563;-72
2021/12/22 13:11:57;;;;;;;30.98;15.43;;;;;;;;;;5026595;28;20040;-72
2021/12/22 13:17:19;;;;;;;32.45;14.32;;;;;;;;;;4330237;28;10000661;-72
2021/12/22 13:19:49;;;;;;;35.85;15.48;;;;;;;;;;5024583;28;20033;-70
2021/12/22 13:22:19;;;;;;;23.42;13.35;;;;;;;;;;5029004;28;20032;-72
2021/12/22 13:24:45;;;;;;;21.45;13.50;;;;;;;;;;5031873;28;20033;-73
2021/12/22 13:27:11;;;;;;;31.13;14.07;;;;;;;;;;5030193;28;20056;-72
2021/12/22 13:29:39;;;;;;;21.77;13.13;;;;;;;;;;5028507;28;20034;-71
2021/12/22 13:32:11;;;;;;;19.83;12.27;;;7.40;99.90;;;;;;5031728;28;20487;-72
2021/12/22 13:34:43;;;;;;;22.90;12.00;;;7.90;99.90;;;;;;5031077;28;20571;-72
2021/12/22 13:37:10;;;;;;;19.30;12.05;;;;;;;;;;5029416;28;20026;-74
2021/12/22 13:39:44;;;;;;;16.33;12.18;;;;;;;;;;5030467;28;20120;-72
2021/12/22 13:42:10;;;;;;;18.40;12.00;;;;;;;;;;5031457;28;20053;-72
2021/12/22 13:44:37;;;;;;;21.80;12.43;;;;;;;;;;5030649;28;20037;-72
2021/12/22 13:47:04;;;;;;;24.52;13.38;;;;;;;;;;5010692;28;20056;-73
2021/12/22 13:49:31;;;;;;;21.92;12.90;;;;;;;;;;5021744;28;20359;-70
2021/12/22 13:51:57;;;;;;;20.05;13.00;;;;;;;;;;5030131;28;20057;-72
2021/12/22 13:54:28;;;;;;;22.27;11.70;;;7.30;99.90;;;;;;5030252;28;20033;-73
2021/12/22 13:57:05;;;;;;;21.73;12.20;;;;;;;;;;5031051;28;20048;-71
2021/12/22 13:59:33;;;;;;;17.48;11.45;;;;;;;;;;5029002;28;20064;-74
2021/12/22 14:02:00;;;;;;;18.10;12.20;;;6.80;99.90;;;;;;5030986;28;20033;-73
2021/12/22 14:04:27;;;;;;;28.50;13.05;;;;;;;;;;5030450;28;20029;-75
2021/12/22 14:07:21;;;;;;;19.77;12.40;;;7.20;99.90;;;;;;5030257;28;20029;-71
2021/12/22 14:09:52;;;;;;;23.85;12.27;;;7.10;99.90;;;;;;5030937;28;20036;-72
2021/12/22 14:12:23;;;;;;;20.52;12.65;;;7.00;99.90;;;;;;4993730;28;20033;-74
2021/12/22 14:14:57;;;;;;;20.83;13.07;;;6.70;99.90;;;;;;5022985;28;20026;-70
2021/12/22 14:17:39;;;;;;;20.05;12.02;;;6.30;99.90;;;;;;5022668;28;20017;-71
2021/12/22 14:20:09;;;;;;;15.52;11.18;;;;;;;;;;5016019;28;20387;-72
2021/12/22 14:22:36;;;;;;;16.27;11.77;;;;;;;;;;5024326;28;20523;-72